createdAt,value
2018-11-14T00:02:03.250Z,98419.05
2018-11-14T00:04:30.657Z,98412.53
2018-11-14T00:06:58.069Z,98407.03
2018-11-14T00:09:25.540Z,98411.26
2018-11-14T00:11:53.001Z,98404.64
2018-11-14T00:14:20.718Z,98402.04
2018-11-14T00:16:48.164Z,98405.42
2018-11-14T00:19:15.651Z,98405.74
2018-11-14T00:21:43.055Z,98399.28
2018-11-14T00:24:10.543Z,98395.34
2018-11-14T00:26:37.960Z,98396.66
2018-11-14T00:29:05.405Z,98392.28
2018-11-14T00:31:32.899Z,98387.02
2018-11-14T00:34:00.318Z,98385.55
2018-11-14T00:36:28.131Z,98383.91
2018-11-14T00:38:55.535Z,98375.80
2018-11-14T00:41:22.945Z,98382.08
2018-11-14T00:43:50.347Z,98377.03
2018-11-14T00:46:17.757Z,98382.53
2018-11-14T00:48:45.194Z,98384.37
2018-11-14T00:51:12.603Z,98377.26
2018-11-14T00:53:40.191Z,98373.22
2018-11-14T00:56:07.590Z,98372.80
2018-11-14T00:58:34.990Z,98373.98
2018-11-14T01:01:02.463Z,98369.14
2018-11-14T01:03:29.887Z,98372.62
2018-11-14T01:05:57.284Z,98372.62
2018-11-14T01:08:25.118Z,98375.42
2018-11-14T01:10:52.547Z,98378.05
2018-11-14T01:13:20.013Z,98376.09
2018-11-14T01:15:47.346Z,98374.50
2018-11-14T01:18:14.752Z,98372.41
2018-11-14T01:20:42.250Z,98368.12
2018-11-14T01:23:09.680Z,98370.58
2018-11-14T01:25:37.111Z,98371.05
2018-11-14T01:28:04.517Z,98369.48
2018-11-14T01:30:32.126Z,98365.77
2018-11-14T01:32:59.569Z,98361.55
2018-11-14T01:35:27.167Z,98365.34
2018-11-14T01:37:54.592Z,98365.94
2018-11-14T01:40:22.627Z,98366.66
2018-11-14T01:42:50.046Z,98366.14
2018-11-14T01:45:17.448Z,98363.45
2018-11-14T01:47:44.900Z,98354.00
2018-11-14T01:50:12.309Z,98352.73
2018-11-14T01:52:39.701Z,98352.64
2018-11-14T01:55:07.110Z,98343.06
2018-11-14T01:57:34.514Z,98346.11
2018-11-14T02:00:01.938Z,98342.96
2018-11-14T02:02:29.345Z,98343.11
2018-11-14T02:04:56.746Z,98343.11
2018-11-14T02:07:24.317Z,98338.80
2018-11-14T02:09:51.713Z,98331.58
2018-11-14T02:12:19.117Z,98322.81
2018-11-14T02:14:46.522Z,98330.73
2018-11-14T02:17:13.963Z,98329.16
2018-11-14T02:19:41.515Z,98325.86
2018-11-14T02:22:08.915Z,98320.64
2018-11-14T02:24:36.326Z,98318.92
2018-11-14T02:27:04.394Z,98315.97
2018-11-14T02:29:31.793Z,98317.28
2018-11-14T02:31:59.195Z,98313.17
2018-11-14T02:34:26.602Z,98305.46
2018-11-14T02:36:54.014Z,98313.17
2018-11-14T02:39:21.474Z,98309.34
2018-11-14T02:41:48.960Z,98311.01
2018-11-14T02:44:16.415Z,98307.95
2018-11-14T02:46:43.858Z,98315.20
2018-11-14T02:49:11.271Z,98316.76
2018-11-14T02:51:38.754Z,98314.89
2018-11-14T02:54:06.216Z,98317.53
2018-11-14T02:56:33.669Z,98316.87
2018-11-14T02:59:01.080Z,98314.08
2018-11-14T03:01:28.489Z,98318.68
2018-11-14T03:03:55.934Z,98316.03
2018-11-14T03:06:23.512Z,98320.88
2018-11-14T03:08:50.951Z,98315.87
2018-11-14T03:11:18.385Z,98316.50
2018-11-14T03:13:45.791Z,98307.06
2018-11-14T03:16:13.220Z,98309.22
2018-11-14T03:18:40.635Z,98306.77
2018-11-14T03:21:08.023Z,98305.77
2018-11-14T03:23:35.456Z,98304.98
2018-11-14T03:26:02.858Z,98299.96
2018-11-14T03:28:30.301Z,98291.86
2018-11-14T03:30:57.717Z,98292.36
2018-11-14T03:33:25.117Z,98294.66
2018-11-14T03:35:52.544Z,98291.02
2018-11-14T03:38:20.031Z,98290.08
2018-11-14T03:40:47.467Z,98294.44
2018-11-14T03:43:14.962Z,98295.86
2018-11-14T03:45:42.401Z,98300.48
2018-11-14T03:48:09.805Z,98292.02
2018-11-14T03:50:37.240Z,98287.23
2018-11-14T03:53:04.656Z,98293.18
2018-11-14T03:55:32.063Z,98292.13
2018-11-14T03:57:59.460Z,98295.39
2018-11-14T04:00:26.881Z,98302.22
2018-11-14T04:02:54.290Z,98295.80
2018-11-14T04:05:21.697Z,98298.50
2018-11-14T04:07:49.090Z,98293.31
2018-11-14T04:10:16.501Z,98291.08
2018-11-14T04:12:43.920Z,98290.61
2018-11-14T04:15:11.361Z,98289.11
2018-11-14T04:17:38.779Z,98286.31
2018-11-14T04:20:06.810Z,98286.61
2018-11-14T04:22:34.211Z,98294.08
2018-11-14T04:25:01.892Z,98295.81
2018-11-14T04:27:29.322Z,98291.34
2018-11-14T04:29:56.832Z,98293.72
2018-11-14T04:32:24.250Z,98290.70
2018-11-14T04:34:51.690Z,98285.14
2018-11-14T04:37:19.149Z,98280.73
2018-11-14T04:39:47.426Z,98286.51
2018-11-14T04:42:14.845Z,98291.59
2018-11-14T04:44:42.324Z,98288.95
2018-11-14T04:47:09.753Z,98290.58
2018-11-14T04:49:37.329Z,98286.87
2018-11-14T04:52:04.773Z,98282.56
2018-11-14T04:54:32.283Z,98278.31
2018-11-14T04:56:59.734Z,98282.75
2018-11-14T04:59:27.161Z,98280.53
2018-11-14T05:01:54.570Z,98285.67
2018-11-14T05:04:22.020Z,98285.97
2018-11-14T05:06:49.430Z,98282.69
2018-11-14T05:09:16.883Z,98277.25
2018-11-14T05:11:44.284Z,98278.09
2018-11-14T05:14:11.713Z,98278.29
2018-11-14T05:16:39.346Z,98278.77
2018-11-14T05:19:06.846Z,98276.85
2018-11-14T05:21:34.283Z,98270.14
2018-11-14T05:24:01.696Z,98271.63
2018-11-14T05:26:29.107Z,98269.70
2018-11-14T05:28:56.647Z,98276.30
2018-11-14T05:31:24.117Z,98274.49
2018-11-14T05:33:51.539Z,98269.78
2018-11-14T05:36:18.951Z,98268.96
2018-11-14T05:38:46.367Z,98264.30
2018-11-14T05:41:13.899Z,98261.07
2018-11-14T05:43:41.322Z,98260.00
2018-11-14T05:46:08.733Z,98263.48
2018-11-14T05:48:36.151Z,98264.47
2018-11-14T05:51:03.562Z,98260.03
2018-11-14T05:53:31.006Z,98261.05
2018-11-14T05:55:58.430Z,98256.27
2018-11-14T05:58:25.902Z,98262.59
2018-11-14T06:00:53.316Z,98261.73
2018-11-14T06:03:20.727Z,98258.61
2018-11-14T06:05:48.134Z,98253.13
2018-11-14T06:08:15.534Z,98258.73
2018-11-14T06:10:42.990Z,98251.14
2018-11-14T06:13:10.445Z,98256.59
2018-11-14T06:15:37.884Z,98252.58
2018-11-14T06:18:05.286Z,98252.30
2018-11-14T06:20:32.715Z,98248.16
2018-11-14T06:23:00.127Z,98254.38
2018-11-14T06:25:27.543Z,98251.87
2018-11-14T06:27:55.599Z,98255.02
2018-11-14T06:30:23.010Z,98249.70
2018-11-14T06:32:50.557Z,98251.31
2018-11-14T06:35:18.542Z,98254.69
2018-11-14T06:37:45.981Z,98253.77
2018-11-14T06:40:13.473Z,98261.23
2018-11-14T06:42:40.906Z,98261.95
2018-11-14T06:45:08.431Z,98258.12
2018-11-14T06:47:35.858Z,98254.95
2018-11-14T06:50:03.403Z,98256.88
2018-11-14T06:52:30.775Z,98260.33
2018-11-14T06:54:58.683Z,98259.02
2018-11-14T06:57:26.098Z,98267.63
2018-11-14T06:59:53.619Z,98262.84
2018-11-14T07:02:27.317Z,98265.12
2018-11-14T07:04:48.447Z,98273.45
2018-11-14T07:07:15.872Z,98278.00
2018-11-14T07:09:43.329Z,98280.16
2018-11-14T07:12:10.900Z,98276.50
2018-11-14T07:14:38.339Z,98272.14
2018-11-14T07:17:05.756Z,98271.52
2018-11-14T07:19:33.243Z,98270.75
2018-11-14T07:22:00.641Z,98281.14
2018-11-14T07:24:28.071Z,98287.29
2018-11-14T07:26:55.628Z,98281.98
2018-11-14T07:29:23.076Z,98280.65
2018-11-14T07:31:50.481Z,98280.53
2018-11-14T07:34:17.904Z,98280.19
2018-11-14T07:36:45.346Z,98285.78
2018-11-14T07:39:13.013Z,98285.59
2018-11-14T07:41:40.458Z,98282.72
2018-11-14T07:44:08.084Z,98282.00
2018-11-14T07:46:35.488Z,98286.30
2018-11-14T07:49:03.782Z,98292.21
2018-11-14T07:51:31.108Z,98291.80
2018-11-14T07:53:58.553Z,98291.51
2018-11-14T07:56:26.112Z,98287.38
2018-11-14T07:58:53.720Z,98288.77
2018-11-14T08:01:21.416Z,98285.70
2018-11-14T08:03:49.779Z,98285.70
2018-11-14T08:06:17.255Z,98289.53
2018-11-14T08:08:44.680Z,98287.21
2018-11-14T08:11:12.099Z,98294.25
2018-11-14T08:13:39.508Z,98290.59
2018-11-14T08:16:07.223Z,98291.84
2018-11-14T08:18:34.851Z,98286.89
2018-11-14T08:21:02.285Z,98290.11
2018-11-14T08:23:29.978Z,98289.69
2018-11-14T08:25:57.409Z,98288.54
2018-11-14T08:28:24.836Z,98284.82
2018-11-14T08:30:52.473Z,98281.73
2018-11-14T08:33:19.985Z,98275.30
2018-11-14T08:35:48.011Z,98276.80
2018-11-14T08:38:15.417Z,98282.38
2018-11-14T08:40:42.967Z,98280.37
2018-11-14T08:43:10.373Z,98282.51
2018-11-14T08:45:37.845Z,98278.63
2018-11-14T08:48:05.273Z,98282.41
2018-11-14T08:50:32.680Z,98282.16
2018-11-14T08:53:00.117Z,98277.14
2018-11-14T08:55:28.557Z,98278.20
2018-11-14T08:57:56.030Z,98272.39
2018-11-14T09:00:23.447Z,98273.29
2018-11-14T09:02:51.026Z,98276.52
2018-11-14T09:05:19.654Z,98273.59
2018-11-14T09:07:48.269Z,98270.73
2018-11-14T09:10:15.633Z,98269.94
2018-11-14T09:12:44.137Z,98267.16
2018-11-14T09:15:11.957Z,98270.61
2018-11-14T09:17:40.477Z,98269.84
2018-11-14T09:20:07.990Z,98266.22
2018-11-14T09:22:35.394Z,98264.77
2018-11-14T09:25:03.905Z,98272.38
2018-11-14T09:27:31.547Z,98267.18
2018-11-14T09:29:58.941Z,98274.78
2018-11-14T09:32:26.366Z,98270.34
2018-11-14T09:34:53.826Z,98266.56
2018-11-14T09:37:21.297Z,98268.47
2018-11-14T09:39:50.071Z,98263.72
2018-11-14T09:42:17.510Z,98266.89
2018-11-14T09:44:44.922Z,98270.71
2018-11-14T09:47:12.341Z,98273.48
2018-11-14T09:49:39.725Z,98277.73
2018-11-14T09:52:07.170Z,98275.38
2018-11-14T09:54:34.561Z,98273.00
2018-11-14T09:57:02.048Z,98268.31
2018-11-14T09:59:29.470Z,98270.20
2018-11-14T10:01:56.881Z,98271.05
2018-11-14T10:04:24.339Z,98272.25
2018-11-14T10:06:51.737Z,98270.87
2018-11-14T10:09:19.286Z,98275.76
2018-11-14T10:11:46.749Z,98279.64
2018-11-14T10:14:14.179Z,98277.56
2018-11-14T10:16:41.600Z,98270.80
2018-11-14T10:19:09.088Z,98271.56
2018-11-14T10:21:36.556Z,98271.23
2018-11-14T10:24:04.031Z,98268.61
2018-11-14T10:26:31.505Z,98267.48
2018-11-14T10:28:58.994Z,98267.41
2018-11-14T10:31:26.491Z,98262.28
2018-11-14T10:33:54.219Z,98258.80
2018-11-14T10:36:21.696Z,98260.39
2018-11-14T10:38:49.104Z,98256.33
2018-11-14T10:41:16.523Z,98255.31
2018-11-14T10:43:43.925Z,98249.59
2018-11-14T10:46:11.447Z,98254.94
2018-11-14T10:48:39.835Z,98244.81
2018-11-14T10:51:07.335Z,98245.23
2018-11-14T10:53:34.681Z,98238.73
2018-11-14T10:56:02.222Z,98239.45
2018-11-14T10:58:29.665Z,98235.56
2018-11-14T11:00:57.503Z,98234.19
2018-11-14T11:03:25.149Z,98233.23
2018-11-14T11:05:52.585Z,98232.98
2018-11-14T11:08:34.942Z,98227.70
2018-11-14T11:11:02.372Z,98223.27
2018-11-14T11:13:29.820Z,98221.67
2018-11-14T11:15:57.253Z,98223.82
2018-11-14T11:18:24.697Z,98222.78
2018-11-14T11:20:52.109Z,98217.24
2018-11-14T11:23:19.552Z,98207.23
2018-11-14T11:25:47.513Z,98216.89
2018-11-14T11:28:14.962Z,98215.93
2018-11-14T11:30:42.421Z,98206.51
2018-11-14T11:33:09.905Z,98205.73
2018-11-14T11:35:38.284Z,98205.11
2018-11-14T11:38:05.725Z,98208.85
2018-11-14T11:40:33.225Z,98199.51
2018-11-14T11:43:00.696Z,98201.08
2018-11-14T11:45:28.972Z,98194.71
2018-11-14T11:47:56.385Z,98194.69
2018-11-14T11:50:23.857Z,98189.06
2018-11-14T11:52:51.249Z,98191.22
2018-11-14T11:55:18.687Z,98194.78
2018-11-14T11:57:46.097Z,98189.98
2018-11-14T12:00:13.654Z,98185.89
2018-11-14T12:02:41.041Z,98179.10
2018-11-14T12:05:08.444Z,98176.59
2018-11-14T12:07:35.892Z,98173.03
2018-11-14T12:10:03.324Z,98174.14
2018-11-14T12:12:30.743Z,98178.19
2018-11-14T12:14:58.149Z,98173.05
2018-11-14T12:17:25.609Z,98171.80
2018-11-14T12:19:53.176Z,98165.98
2018-11-14T12:22:20.585Z,98165.05
2018-11-14T12:24:48.027Z,98164.73
2018-11-14T12:27:15.491Z,98160.06
2018-11-14T12:29:42.901Z,98167.21
2018-11-14T12:32:10.296Z,98162.08
2018-11-14T12:34:37.711Z,98162.41
2018-11-14T12:37:05.115Z,98162.08
2018-11-14T12:39:32.831Z,98157.16
2018-11-14T12:42:00.290Z,98155.77
2018-11-14T12:44:27.730Z,98151.16
2018-11-14T12:46:55.140Z,98158.20
2018-11-14T12:49:22.546Z,98157.92
2018-11-14T12:51:49.975Z,98145.57
2018-11-14T12:54:17.615Z,98145.57
2018-11-14T12:56:45.071Z,98145.14
2018-11-14T12:59:12.541Z,98140.76
2018-11-14T13:01:39.964Z,98140.61
2018-11-14T13:04:07.358Z,98134.36
2018-11-14T13:06:34.809Z,98133.74
2018-11-14T13:09:02.291Z,98129.66
2018-11-14T13:11:29.701Z,98133.48
2018-11-14T13:13:57.189Z,98118.93
2018-11-14T13:16:24.670Z,98123.14
2018-11-14T13:18:52.077Z,98120.44
2018-11-14T13:21:19.520Z,98119.81
2018-11-14T13:23:47.044Z,98122.64
2018-11-14T13:26:14.556Z,98113.05
2018-11-14T13:28:41.964Z,98108.56
2018-11-14T13:31:09.394Z,98112.09
2018-11-14T13:33:37.058Z,98109.23
2018-11-14T13:36:05.045Z,98111.11
2018-11-14T13:38:32.509Z,98107.80
2018-11-14T13:41:00.160Z,98111.28
2018-11-14T13:43:27.932Z,98111.95
2018-11-14T13:45:55.482Z,98112.28
2018-11-14T13:48:22.940Z,98111.39
2018-11-14T13:50:50.674Z,98113.66
2018-11-14T13:53:17.842Z,98118.37
2018-11-14T13:55:45.257Z,98109.84
2018-11-14T13:58:13.885Z,98119.75
2018-11-14T14:00:41.291Z,98120.23
2018-11-14T14:03:08.691Z,98119.47
2018-11-14T14:05:36.280Z,98120.45
2018-11-14T14:08:03.855Z,98115.93
2018-11-14T14:10:31.311Z,98123.02
2018-11-14T14:12:58.710Z,98115.36
2018-11-14T14:15:26.123Z,98109.95
2018-11-14T14:17:53.514Z,98115.30
2018-11-14T14:20:21.304Z,98116.45
2018-11-14T14:22:48.809Z,98119.77
2018-11-14T14:25:16.260Z,98116.23
2018-11-14T14:27:43.669Z,98121.67
2018-11-14T14:30:11.197Z,98120.25
2018-11-14T14:32:38.615Z,98117.06
2018-11-14T14:35:06.084Z,98117.71
2018-11-14T14:37:33.494Z,98121.67
2018-11-14T14:40:01.040Z,98122.48
2018-11-14T14:42:28.460Z,98121.94
2018-11-14T14:44:55.913Z,98121.84
2018-11-14T14:47:23.461Z,98128.44
2018-11-14T14:49:50.905Z,98126.08
2018-11-14T14:52:18.338Z,98125.70
2018-11-14T14:54:45.744Z,98125.95
2018-11-14T14:57:13.166Z,98125.56
2018-11-14T14:59:40.609Z,98120.25
2018-11-14T15:02:08.189Z,98122.48
2018-11-14T15:04:35.657Z,98126.87
2018-11-14T15:07:03.089Z,98122.64
2018-11-14T15:09:30.617Z,98125.56
2018-11-14T15:11:58.802Z,98124.06
2018-11-14T15:14:26.276Z,98120.97
2018-11-14T15:16:54.530Z,98120.61
2018-11-14T15:19:21.990Z,98119.71
2018-11-14T15:21:49.499Z,98120.97
2018-11-14T15:24:16.900Z,98122.77
2018-11-14T15:26:44.302Z,98119.78
2018-11-14T15:29:11.742Z,98113.59
2018-11-14T15:31:39.151Z,98115.55
2018-11-14T15:34:06.584Z,98118.91
2018-11-14T15:36:34.004Z,98115.88
2018-11-14T15:39:01.438Z,98124.11
2018-11-14T15:41:28.830Z,98114.88
2018-11-14T15:43:56.257Z,98115.36
2018-11-14T15:46:23.670Z,98112.25
2018-11-14T15:48:51.075Z,98110.76
2018-11-14T15:51:18.481Z,98112.78
2018-11-14T15:53:45.871Z,98112.09
2018-11-14T15:56:13.309Z,98106.56
2018-11-14T15:58:40.717Z,98109.34
2018-11-14T16:01:08.142Z,98108.14
2018-11-14T16:03:35.701Z,98110.76
2018-11-14T16:06:03.107Z,98110.15
2018-11-14T16:08:30.575Z,98108.68
2018-11-14T16:10:58.036Z,98110.42
2018-11-14T16:13:25.518Z,98107.70
2018-11-14T16:15:53.126Z,98115.45
2018-11-14T16:18:20.547Z,98112.32
2018-11-14T16:20:48.000Z,98113.34
2018-11-14T16:23:15.404Z,98107.77
2018-11-14T16:25:43.417Z,98110.73
2018-11-14T16:28:10.886Z,98119.03
2018-11-14T16:30:38.266Z,98122.51
2018-11-14T16:33:05.698Z,98120.91
2018-11-14T16:35:34.036Z,98126.41
2018-11-14T16:38:01.578Z,98124.30
2018-11-14T16:40:28.950Z,98128.85
2018-11-14T16:42:56.396Z,98123.45
2018-11-14T16:45:23.854Z,98125.93
2018-11-14T16:47:51.337Z,98128.64
2018-11-14T16:50:18.780Z,98129.38
2018-11-14T16:52:46.262Z,98131.48
2018-11-14T16:55:13.706Z,98127.73
2018-11-14T16:57:41.152Z,98129.87
2018-11-14T17:00:08.554Z,98134.55
2018-11-14T17:02:35.941Z,98135.02
2018-11-14T17:05:03.520Z,98129.39
2018-11-14T17:07:30.967Z,98124.76
2018-11-14T17:09:59.260Z,98127.22
2018-11-14T17:12:26.789Z,98129.52
2018-11-14T17:14:54.214Z,98128.16
2018-11-14T17:17:21.753Z,98136.18
2018-11-14T17:19:49.191Z,98131.98
2018-11-14T17:22:16.607Z,98131.64
2018-11-14T17:24:44.002Z,98136.83
2018-11-14T17:27:11.789Z,98135.28
2018-11-14T17:29:39.233Z,98128.39
2018-11-14T17:32:06.630Z,98132.41
2018-11-14T17:34:34.181Z,98134.41
2018-11-14T17:37:01.657Z,98134.61
2018-11-14T17:39:29.065Z,98135.42
2018-11-14T17:41:56.733Z,98135.80
2018-11-14T17:44:24.090Z,98140.14
2018-11-14T17:46:51.680Z,98141.48
2018-11-14T17:49:20.166Z,98142.48
2018-11-14T17:51:47.559Z,98145.06
2018-11-14T17:54:14.963Z,98138.69
2018-11-14T17:56:42.379Z,98147.17
2018-11-14T17:59:09.793Z,98152.31
2018-11-14T18:01:37.218Z,98149.37
2018-11-14T18:04:04.624Z,98152.18
2018-11-14T18:06:32.033Z,98152.18
2018-11-14T18:08:59.488Z,98141.23
2018-11-14T18:11:27.048Z,98147.61
2018-11-14T18:13:54.492Z,98137.27
2018-11-14T18:16:21.898Z,98141.09
2018-11-14T18:18:49.501Z,98144.91
2018-11-14T18:21:16.939Z,98141.23
2018-11-14T18:23:44.352Z,98138.08
2018-11-14T18:26:11.788Z,98139.65
2018-11-14T18:28:39.218Z,98136.18
2018-11-14T18:31:06.723Z,98137.71
2018-11-14T18:33:34.172Z,98133.58
2018-11-14T18:36:01.583Z,98141.11
2018-11-14T18:38:29.026Z,98137.66
2018-11-14T18:40:56.484Z,98135.02
2018-11-14T18:43:24.223Z,98138.77
2018-11-14T18:45:51.669Z,98140.30
2018-11-14T18:48:19.460Z,98141.22
2018-11-14T18:50:46.911Z,98135.72
2018-11-14T18:53:14.334Z,98132.77
2018-11-14T18:55:41.865Z,98135.20
2018-11-14T18:58:09.269Z,98139.45
2018-11-14T19:00:36.703Z,98142.30
2018-11-14T19:03:04.135Z,98131.88
2018-11-14T19:05:31.821Z,98138.96
2018-11-14T19:08:00.168Z,98136.62
2018-11-14T19:10:27.592Z,98136.41
2018-11-14T19:12:55.103Z,98133.41
2018-11-14T19:15:22.572Z,98130.24
2018-11-14T19:17:50.029Z,98136.92
2018-11-14T19:20:17.462Z,98131.66
2018-11-14T19:22:44.879Z,98133.91
2018-11-14T19:25:12.311Z,98134.33
2018-11-14T19:27:39.725Z,98138.14
2018-11-14T19:30:07.234Z,98130.56
2018-11-14T19:32:34.689Z,98130.98
2018-11-14T19:35:02.201Z,98127.27
2018-11-14T19:37:29.644Z,98124.22
2018-11-14T19:39:57.078Z,98132.94
2018-11-14T19:42:24.509Z,98124.38
2018-11-14T19:44:51.938Z,98117.72
2018-11-14T19:47:19.421Z,98126.19
2018-11-14T19:49:46.861Z,98120.17
2018-11-14T19:52:14.279Z,98120.59
2018-11-14T19:54:41.719Z,98118.80
2018-11-14T19:57:09.153Z,98113.19
2018-11-14T19:59:36.569Z,98120.03
2018-11-14T20:02:04.025Z,98122.41
2018-11-14T20:04:31.446Z,98123.12
2018-11-14T20:06:59.229Z,98115.98
2018-11-14T20:09:27.681Z,98115.38
2018-11-14T20:11:55.112Z,98110.80
2018-11-14T20:14:22.776Z,98109.84
2018-11-14T20:16:50.313Z,98105.45
2018-11-14T20:19:17.719Z,98111.42
2018-11-14T20:21:45.197Z,98109.08
2018-11-14T20:24:12.610Z,98112.42
2018-11-14T20:26:40.695Z,98103.15
2018-11-14T20:29:08.235Z,98104.05
2018-11-14T20:31:35.881Z,98111.10
2018-11-14T20:34:04.031Z,98105.47
2018-11-14T20:36:31.466Z,98108.23
2018-11-14T20:38:58.878Z,98104.42
2018-11-14T20:41:26.347Z,98110.11
2018-11-14T20:43:53.857Z,98107.61
2018-11-14T20:46:21.299Z,98104.42
2018-11-14T20:48:48.751Z,98103.53
2018-11-14T20:51:16.168Z,98100.78
2018-11-14T20:53:43.679Z,98101.23
2018-11-14T20:56:11.127Z,98109.21
2018-11-14T20:58:38.817Z,98102.59
2018-11-14T21:01:06.350Z,98103.89
2018-11-14T21:03:33.897Z,98109.16
2018-11-14T21:06:01.309Z,98108.48
2018-11-14T21:08:28.748Z,98109.50
2018-11-14T21:10:56.176Z,98106.22
2018-11-14T21:13:23.637Z,98103.05
2018-11-14T21:15:51.087Z,98108.45
2018-11-14T21:18:18.633Z,98102.11
2018-11-14T21:20:46.029Z,98105.50
2018-11-14T21:23:13.480Z,98099.77
2018-11-14T21:25:40.921Z,98096.42
2018-11-14T21:28:08.334Z,98095.95
2018-11-14T21:30:35.787Z,98096.55
2018-11-14T21:33:03.214Z,98091.77
2018-11-14T21:35:31.399Z,98093.58
2018-11-14T21:37:58.911Z,98087.39
2018-11-14T21:40:26.468Z,98089.92
2018-11-14T21:42:54.010Z,98086.31
2018-11-14T21:45:21.489Z,98088.05
2018-11-14T21:47:48.893Z,98078.07
2018-11-14T21:50:16.310Z,98080.42
2018-11-14T21:52:43.733Z,98089.02
2018-11-14T21:55:11.157Z,98083.62
2018-11-14T21:57:39.578Z,98085.55
2018-11-14T22:00:07.001Z,98089.42
2018-11-14T22:02:34.467Z,98081.18
2018-11-14T22:05:01.959Z,98081.18
2018-11-14T22:07:29.384Z,98077.70
2018-11-14T22:09:56.864Z,98082.97
2018-11-14T22:12:24.300Z,98078.63
2018-11-14T22:14:51.734Z,98078.27
2018-11-14T22:17:19.143Z,98079.08
2018-11-14T22:19:47.308Z,98072.57
2018-11-14T22:22:14.690Z,98076.28
2018-11-14T22:24:42.282Z,98071.70
2018-11-14T22:27:09.733Z,98072.00
2018-11-14T22:29:37.198Z,98073.03
2018-11-14T22:32:04.678Z,98069.62
2018-11-14T22:34:32.169Z,98068.50
2018-11-14T22:36:59.543Z,98069.47
2018-11-14T22:39:27.058Z,98067.31
2018-11-14T22:41:54.478Z,98067.59
2018-11-14T22:44:22.650Z,98069.59
2018-11-14T22:46:50.186Z,98056.08
2018-11-14T22:49:17.655Z,98056.41
2018-11-14T22:51:45.062Z,98060.78
2018-11-14T22:54:12.495Z,98060.94
2018-11-14T22:56:40.644Z,98066.20
2018-11-14T22:59:08.033Z,98059.44
2018-11-14T23:01:35.454Z,98057.88
2018-11-14T23:04:02.869Z,98054.81
2018-11-14T23:06:30.613Z,98058.41
2018-11-14T23:08:58.009Z,98057.83
2018-11-14T23:11:25.422Z,98058.33
2018-11-14T23:13:52.818Z,98058.33
2018-11-14T23:16:20.238Z,98054.86
2018-11-14T23:18:47.674Z,98052.44
2018-11-14T23:21:15.073Z,98052.39
2018-11-14T23:23:42.508Z,98058.56
2018-11-14T23:26:09.965Z,98061.94
2018-11-14T23:28:37.394Z,98055.33
2018-11-14T23:31:05.076Z,98054.86
2018-11-14T23:33:32.957Z,98046.73
2018-11-14T23:36:00.585Z,98054.55
2018-11-14T23:38:28.031Z,98047.28
2018-11-14T23:40:55.458Z,98050.27
2018-11-14T23:43:22.899Z,98046.73
2018-11-14T23:45:50.302Z,98045.02
2018-11-14T23:48:17.718Z,98038.16
2018-11-14T23:50:45.139Z,98036.84
2018-11-14T23:53:12.567Z,98039.03
2018-11-14T23:55:40.063Z,98034.92
2018-11-14T23:58:07.471Z,98036.21
